Terminal Aerodrome Forecast
Issued by NWS

Home | Current Version | Previous Version | Text Only | Print | Product List | Glossary On
Versions: 1 2 3 4 5 6 7 8 9 10 11 12 13 14 15 16 17 18 19 20 21 22 23 24 25 26 27 28 29 30 31 32 33 34 35 36 37 38
391
FTUS45 KBOU 060358 AAC
TAFAPA
TAF AMD
KAPA 060358Z 0604/0624 04010KT P6SM FEW080 SCT120
     FM060600 13008KT P6SM SCT070 BKN110
     FM060900 09007KT P6SM SCT060 BKN100
     FM061800 12012KT P6SM SCT050 BKN100
     FM062200 10012KT P6SM SCT025 OVC050 PROB30 0622/0624 2SM -SN BR
      BKN020=

USA.gov is the U.S. government's official web portal to all federal, state and local government web resources and services.